createdAt,value
2023-04-18T00:01:45.966Z,101334.88
2023-04-18T00:04:14.187Z,101323.97
2023-04-18T00:06:41.206Z,101323.19
2023-04-18T00:09:08.076Z,101327.63
2023-04-18T00:11:35.182Z,101329.66
2023-04-18T00:14:03.361Z,101322.31
2023-04-18T00:16:30.649Z,101311.47
2023-04-18T00:18:57.548Z,101316.75
2023-04-18T00:21:25.839Z,101317.72
2023-04-18T00:23:52.799Z,101316.56
2023-04-18T00:26:19.915Z,101316.78
2023-04-18T00:28:48.150Z,101311.69
2023-04-18T00:31:15.088Z,101312.38
2023-04-18T00:33:41.885Z,101317.16
2023-04-18T00:36:08.923Z,101313.09
2023-04-18T00:38:35.918Z,101308.66
2023-04-18T00:41:02.658Z,101317.06
2023-04-18T00:43:29.517Z,101309.84
2023-04-18T00:45:57.292Z,101306.94
2023-04-18T00:48:24.935Z,101307.88
2023-04-18T00:50:54.438Z,101308.22
2023-04-18T00:53:21.688Z,101311.97
2023-04-18T00:55:48.620Z,101307.19
2023-04-18T00:58:16.554Z,101306.63
2023-04-18T01:00:43.744Z,101310.81
2023-04-18T01:03:14.451Z,101308.59
2023-04-18T01:05:41.503Z,101300.22
2023-04-18T01:08:08.455Z,101299.38
2023-04-18T01:10:36.125Z,101302.91
2023-04-18T01:13:16.994Z,101301.03
2023-04-18T01:15:45.784Z,101290.75
2023-04-18T01:18:17.075Z,101299.84
2023-04-18T01:20:49.823Z,101294.41
2023-04-18T01:23:17.737Z,101296.84
2023-04-18T01:25:45.707Z,101292.84
2023-04-18T01:28:14.624Z,101288.41
2023-04-18T01:30:41.744Z,101293.88
2023-04-18T01:33:08.383Z,101287.47
2023-04-18T01:35:35.420Z,101281.41
2023-04-18T01:38:02.470Z,101285.94
2023-04-18T01:40:30.161Z,101277.00
2023-04-18T01:42:56.867Z,101280.91
2023-04-18T01:45:23.788Z,101279.41
2023-04-18T01:47:50.601Z,101279.19
2023-04-18T01:50:17.774Z,101280.00
2023-04-18T01:52:44.651Z,101273.63
2023-04-18T01:55:11.623Z,101275.22
2023-04-18T01:57:38.402Z,101274.91
2023-04-18T02:00:06.663Z,101277.44
2023-04-18T02:02:42.493Z,101274.84
2023-04-18T02:05:09.650Z,101276.00
2023-04-18T02:07:38.921Z,101276.91
2023-04-18T02:10:06.228Z,101284.00
2023-04-18T02:12:34.316Z,101278.28
2023-04-18T02:15:01.149Z,101275.72
2023-04-18T02:17:28.837Z,101277.38
2023-04-18T02:19:55.853Z,101274.81
2023-04-18T02:22:22.531Z,101284.03
2023-04-18T02:24:49.240Z,101283.00
2023-04-18T02:27:16.120Z,101276.84
2023-04-18T02:29:42.922Z,101278.91
2023-04-18T02:32:09.833Z,101281.81
2023-04-18T02:34:36.946Z,101279.72
2023-04-18T02:37:04.688Z,101283.78
2023-04-18T02:39:32.491Z,101280.91
2023-04-18T02:41:59.152Z,101280.00
2023-04-18T02:44:29.017Z,101279.66
2023-04-18T02:46:56.125Z,101282.44
2023-04-18T02:49:22.870Z,101284.22
2023-04-18T02:51:50.059Z,101282.13
2023-04-18T02:54:17.605Z,101284.22
2023-04-18T02:56:57.041Z,101280.50
2023-04-18T02:59:46.714Z,101275.25
2023-04-18T03:02:45.972Z,101277.72
2023-04-18T03:05:30.006Z,101274.19
2023-04-18T03:08:05.285Z,101275.50
2023-04-18T03:10:32.883Z,101273.28
2023-04-18T03:13:00.062Z,101282.94
2023-04-18T03:15:27.669Z,101273.50
2023-04-18T03:17:54.633Z,101283.41
2023-04-18T03:20:23.661Z,101279.34
2023-04-18T03:23:13.083Z,101272.44
2023-04-18T03:25:40.126Z,101280.09
2023-04-18T03:28:06.761Z,101274.63
2023-04-18T03:30:34.676Z,101274.28
2023-04-18T03:33:03.092Z,101268.69
2023-04-18T03:35:30.906Z,101270.91
2023-04-18T03:37:57.956Z,101265.44
2023-04-18T03:40:28.457Z,101272.28
2023-04-18T03:43:02.458Z,101282.41
2023-04-18T03:45:29.434Z,101267.97
2023-04-18T03:48:01.094Z,101274.38
2023-04-18T03:50:29.147Z,101266.56
2023-04-18T03:52:57.033Z,101274.81
2023-04-18T03:55:23.777Z,101270.06
2023-04-18T03:57:50.874Z,101284.59
2023-04-18T04:00:26.223Z,101273.91
2023-04-18T04:03:00.519Z,101279.72
2023-04-18T04:05:27.908Z,101270.38
2023-04-18T04:07:57.821Z,101266.03
2023-04-18T04:10:24.494Z,101273.25
2023-04-18T04:12:51.615Z,101272.72
2023-04-18T04:15:18.754Z,101277.75
2023-04-18T04:18:06.719Z,101287.09
2023-04-18T04:20:36.060Z,101279.97
2023-04-18T04:23:10.086Z,101280.84
2023-04-18T04:25:39.197Z,101282.13
2023-04-18T04:28:14.508Z,101282.94
2023-04-18T04:30:53.167Z,101278.78
2023-04-18T04:33:21.710Z,101286.56
2023-04-18T04:35:49.691Z,101282.50
2023-04-18T04:38:20.067Z,101288.13
2023-04-18T04:40:47.716Z,101286.78
2023-04-18T04:43:15.644Z,101286.63
2023-04-18T04:45:45.322Z,101286.84
2023-04-18T04:48:12.646Z,101287.06
2023-04-18T04:50:41.625Z,101296.28
2023-04-18T04:53:11.852Z,101300.56
2023-04-18T04:55:38.953Z,101296.41
2023-04-18T04:58:05.720Z,101299.03
2023-04-18T05:00:58.724Z,101306.75
2023-04-18T05:03:26.877Z,101302.53
2023-04-18T05:05:53.943Z,101301.88
2023-04-18T05:08:20.728Z,101302.09
2023-04-18T05:10:47.689Z,101309.06
2023-04-18T05:13:14.372Z,101316.19
2023-04-18T05:15:41.159Z,101320.03
2023-04-18T05:18:08.295Z,101324.28
2023-04-18T05:20:35.192Z,101326.50
2023-04-18T05:23:02.061Z,101330.59
2023-04-18T05:25:29.910Z,101331.78
2023-04-18T05:27:56.771Z,101338.00
2023-04-18T05:30:23.520Z,101334.16
2023-04-18T05:32:50.459Z,101339.19
2023-04-18T05:35:17.347Z,101342.59
2023-04-18T05:37:44.046Z,101341.94
2023-04-18T05:40:13.033Z,101344.38
2023-04-18T05:42:39.970Z,101346.00
2023-04-18T05:45:07.238Z,101343.94
2023-04-18T05:47:34.109Z,101351.34
2023-04-18T05:50:00.957Z,101336.59
2023-04-18T05:52:27.890Z,101347.28
2023-04-18T05:54:54.660Z,101346.69
2023-04-18T05:57:21.411Z,101350.78
2023-04-18T05:59:48.149Z,101352.53
2023-04-18T06:02:15.410Z,101352.22
2023-04-18T06:04:42.760Z,101350.72
2023-04-18T06:07:10.811Z,101346.81
2023-04-18T06:09:37.607Z,101358.13
2023-04-18T06:12:04.519Z,101358.75
2023-04-18T06:14:31.300Z,101362.28
2023-04-18T06:16:58.512Z,101362.50
2023-04-18T06:19:25.257Z,101370.66
2023-04-18T06:21:52.732Z,101370.53
2023-04-18T06:24:22.102Z,101364.13
2023-04-18T06:26:49.076Z,101372.72
2023-04-18T06:29:17.938Z,101364.56
2023-04-18T06:31:46.730Z,101365.28
2023-04-18T06:34:14.428Z,101368.56
2023-04-18T06:36:41.340Z,101369.81
2023-04-18T06:39:08.544Z,101370.31
2023-04-18T06:41:35.346Z,101370.91
2023-04-18T06:44:04.083Z,101380.25
2023-04-18T06:46:32.643Z,101373.84
2023-04-18T06:48:59.934Z,101377.31
2023-04-18T06:51:27.581Z,101380.91
2023-04-18T06:53:54.600Z,101376.72
2023-04-18T06:56:22.526Z,101372.84
2023-04-18T06:58:49.855Z,101373.00
2023-04-18T07:01:16.764Z,101380.25
2023-04-18T07:03:44.252Z,101378.50
2023-04-18T07:06:11.301Z,101383.50
2023-04-18T07:08:38.426Z,101379.00
2023-04-18T07:11:06.599Z,101376.84
2023-04-18T07:13:33.610Z,101370.78
2023-04-18T07:16:01.790Z,101371.84
2023-04-18T07:18:37.201Z,101384.66
2023-04-18T07:21:09.160Z,101375.34
2023-04-18T07:23:36.074Z,101381.50
2023-04-18T07:26:03.385Z,101377.34
2023-04-18T07:28:32.134Z,101382.69
2023-04-18T07:30:59.627Z,101376.50
2023-04-18T07:33:26.618Z,101373.94
2023-04-18T07:35:53.398Z,101382.06
2023-04-18T07:38:20.565Z,101373.19
2023-04-18T07:40:47.485Z,101372.00
2023-04-18T07:43:14.770Z,101378.75
2023-04-18T07:45:43.380Z,101381.78
2023-04-18T07:48:14.228Z,101373.59
2023-04-18T07:50:44.797Z,101367.47
2023-04-18T07:53:11.657Z,101373.03
2023-04-18T07:55:39.291Z,101378.97
2023-04-18T07:58:06.137Z,101381.34
2023-04-18T08:00:37.097Z,101372.56
2023-04-18T08:03:03.927Z,101374.41
2023-04-18T08:05:30.940Z,101382.34
2023-04-18T08:07:57.707Z,101380.84
2023-04-18T08:10:24.567Z,101381.06
2023-04-18T08:12:51.457Z,101388.03
2023-04-18T08:15:18.348Z,101385.91
2023-04-18T08:17:45.332Z,101386.13
2023-04-18T08:20:13.125Z,101383.47
2023-04-18T08:22:50.440Z,101388.06
2023-04-18T08:25:26.890Z,101386.94
2023-04-18T08:27:53.603Z,101385.50
2023-04-18T08:30:20.561Z,101375.66
2023-04-18T08:32:47.429Z,101375.63
2023-04-18T08:35:14.171Z,101376.53
2023-04-18T08:37:41.125Z,101383.25
2023-04-18T08:40:08.309Z,101389.13
2023-04-18T08:42:36.734Z,101385.78
2023-04-18T08:45:04.294Z,101396.66
2023-04-18T08:47:31.369Z,101394.44
2023-04-18T08:49:58.540Z,101397.53
2023-04-18T08:52:27.286Z,101403.31
2023-04-18T08:54:54.036Z,101394.72
2023-04-18T08:57:27.199Z,101401.59
2023-04-18T08:59:55.411Z,101397.34
2023-04-18T09:02:23.457Z,101394.50
2023-04-18T09:04:53.104Z,101396.56
2023-04-18T09:07:27.796Z,101392.91
2023-04-18T09:09:59.297Z,101385.97
2023-04-18T09:12:28.352Z,101377.41
2023-04-18T09:15:14.118Z,101365.69
2023-04-18T09:17:43.588Z,101361.66
2023-04-18T09:20:11.842Z,101378.44
2023-04-18T09:22:52.972Z,101380.78
2023-04-18T09:25:30.192Z,101384.59
2023-04-18T09:28:00.990Z,101382.91
2023-04-18T09:30:38.062Z,101376.09
2023-04-18T09:33:10.126Z,101377.31
2023-04-18T09:35:37.993Z,101373.31
2023-04-18T09:38:06.126Z,101380.78
2023-04-18T09:40:34.311Z,101385.47
2023-04-18T09:43:01.372Z,101383.63
2023-04-18T09:45:29.246Z,101380.31
2023-04-18T09:47:56.518Z,101388.00
2023-04-18T09:50:23.440Z,101384.19
2023-04-18T09:52:50.294Z,101386.88
2023-04-18T09:55:18.797Z,101385.72
2023-04-18T09:57:47.712Z,101388.94
2023-04-18T10:00:38.200Z,101380.22
2023-04-18T10:03:09.984Z,101385.81
2023-04-18T10:05:44.151Z,101381.16
2023-04-18T10:08:13.467Z,101378.69
2023-04-18T10:10:41.255Z,101377.38
2023-04-18T10:13:11.142Z,101377.03
2023-04-18T10:15:39.079Z,101375.47
2023-04-18T10:18:14.224Z,101370.41
2023-04-18T10:20:42.058Z,101376.09
2023-04-18T10:23:40.714Z,101374.47
2023-04-18T10:26:09.567Z,101349.25
2023-04-18T10:28:59.713Z,101354.44
2023-04-18T10:31:34.560Z,101344.69
2023-04-18T10:34:05.597Z,101355.56
2023-04-18T10:36:33.472Z,101343.91
2023-04-18T10:39:22.950Z,101340.84
2023-04-18T10:41:51.512Z,101330.41
2023-04-18T10:44:24.915Z,101326.81
2023-04-18T10:46:55.049Z,101325.38
2023-04-18T10:49:30.248Z,101325.97
2023-04-18T10:52:01.803Z,101331.16
2023-04-18T10:54:55.231Z,101327.31
2023-04-18T10:57:23.225Z,101323.06
2023-04-18T10:59:51.968Z,101331.19
2023-04-18T11:02:25.655Z,101314.38
2023-04-18T11:07:48.549Z,101303.03
2023-04-18T11:10:25.673Z,101288.47
2023-04-18T11:12:54.027Z,101282.63
2023-04-18T11:15:22.902Z,101278.88
2023-04-18T11:18:00.203Z,101282.91
2023-04-18T11:20:28.693Z,101273.16
2023-04-18T11:23:00.896Z,101271.22
2023-04-18T11:25:36.826Z,101267.00
2023-04-18T11:28:14.336Z,101265.97
2023-04-18T11:30:42.285Z,101268.94
2023-04-18T11:33:12.245Z,101260.41
2023-04-18T11:35:48.307Z,101276.16
2023-04-18T11:38:16.153Z,101276.31
2023-04-18T11:40:50.775Z,101280.97
2023-04-18T11:43:22.789Z,101282.84
2023-04-18T11:45:54.587Z,101278.25
2023-04-18T11:48:21.601Z,101280.78
2023-04-18T11:50:48.533Z,101285.38
2023-04-18T11:53:15.312Z,101285.22
2023-04-18T11:55:54.075Z,101281.53
2023-04-18T11:58:35.840Z,101270.75
2023-04-18T12:01:22.028Z,101269.06
2023-04-18T12:04:06.931Z,101274.03
2023-04-18T12:07:00.975Z,101278.72
2023-04-18T12:09:30.826Z,101277.81
2023-04-18T12:12:10.869Z,101290.13
2023-04-18T12:15:02.242Z,101298.81
2023-04-18T12:17:48.540Z,101294.59
2023-04-18T12:23:46.244Z,101303.00
2023-04-18T12:26:29.229Z,101299.09
2023-04-18T12:29:24.457Z,101303.88
2023-04-18T12:32:09.630Z,101308.78
2023-04-18T12:34:37.348Z,101303.50
2023-04-18T12:37:05.092Z,101301.75
2023-04-18T12:39:31.859Z,101317.78
2023-04-18T12:41:58.640Z,101315.09
2023-04-18T12:44:25.707Z,101305.56
2023-04-18T12:46:52.505Z,101322.22
2023-04-18T12:49:19.791Z,101308.94
2023-04-18T12:51:46.622Z,101302.75
2023-04-18T12:54:13.722Z,101302.72
2023-04-18T12:56:40.727Z,101294.84
2023-04-18T12:59:07.442Z,101293.78
2023-04-18T13:01:34.228Z,101301.56
2023-04-18T13:04:11.808Z,101294.28
2023-04-18T13:06:40.087Z,101300.13
2023-04-18T13:09:06.815Z,101300.13
2023-04-18T13:11:33.584Z,101290.66
2023-04-18T13:14:00.401Z,101296.16
2023-04-18T13:16:27.109Z,101294.13
2023-04-18T13:18:55.735Z,101291.19
2023-04-18T13:21:25.227Z,101289.41
2023-04-18T13:23:52.252Z,101292.72
2023-04-18T13:26:19.081Z,101286.97
2023-04-18T13:28:46.590Z,101290.06
2023-04-18T13:31:14.514Z,101291.38
2023-04-18T13:33:43.161Z,101286.66
2023-04-18T13:36:10.064Z,101287.78
2023-04-18T13:38:37.461Z,101294.78
2023-04-18T13:41:12.187Z,101290.22
2023-04-18T13:43:40.245Z,101283.94
2023-04-18T13:46:07.487Z,101285.72
2023-04-18T13:48:34.683Z,101283.69
2023-04-18T13:51:02.814Z,101271.69
2023-04-18T13:53:30.858Z,101280.50
2023-04-18T13:56:01.275Z,101278.16
2023-04-18T13:58:28.232Z,101275.16
2023-04-18T14:00:55.100Z,101268.41
2023-04-18T14:03:22.095Z,101266.44
2023-04-18T14:05:49.074Z,101274.59
2023-04-18T14:08:15.991Z,101272.97
2023-04-18T14:10:42.793Z,101272.53
2023-04-18T14:13:09.443Z,101268.63
2023-04-18T14:15:36.575Z,101267.34
2023-04-18T14:18:03.812Z,101272.19
2023-04-18T14:20:34.554Z,101262.34
2023-04-18T14:23:02.119Z,101263.94
2023-04-18T14:25:30.009Z,101273.19
2023-04-18T14:28:09.668Z,101263.63
2023-04-18T14:30:37.066Z,101248.59
2023-04-18T14:33:04.526Z,101263.34
2023-04-18T14:35:32.013Z,101259.53
2023-04-18T14:37:58.867Z,101258.31
2023-04-18T14:40:25.636Z,101262.13
2023-04-18T14:42:52.770Z,101254.53
2023-04-18T14:45:19.664Z,101256.03
2023-04-18T14:47:46.799Z,101253.44
2023-04-18T14:50:13.794Z,101255.91
2023-04-18T14:52:41.285Z,101256.63
2023-04-18T14:55:09.507Z,101245.47
2023-04-18T14:57:38.048Z,101253.34
2023-04-18T15:00:10.019Z,101252.16
2023-04-18T15:02:38.006Z,101245.59
2023-04-18T15:05:11.597Z,101243.06
2023-04-18T15:07:38.730Z,101240.66
2023-04-18T15:10:08.608Z,101234.97
2023-04-18T15:12:35.606Z,101236.09
2023-04-18T15:15:02.673Z,101237.75
2023-04-18T15:17:30.357Z,101236.22
2023-04-18T15:19:59.277Z,101240.16
2023-04-18T15:22:26.584Z,101237.66
2023-04-18T15:24:53.531Z,101242.16
2023-04-18T15:27:23.027Z,101239.44
2023-04-18T15:29:49.810Z,101238.00
2023-04-18T15:32:16.854Z,101239.84
2023-04-18T15:34:44.021Z,101237.63
2023-04-18T15:37:11.232Z,101231.06
2023-04-18T15:39:38.757Z,101237.19
2023-04-18T15:42:06.334Z,101230.59
2023-04-18T15:44:33.369Z,101234.94
2023-04-18T15:47:01.980Z,101229.91
2023-04-18T15:49:29.283Z,101237.94
2023-04-18T15:51:56.992Z,101228.53
2023-04-18T15:54:23.868Z,101233.97
2023-04-18T15:56:50.944Z,101230.47
2023-04-18T15:59:18.367Z,101226.97
2023-04-18T16:01:46.156Z,101225.91
2023-04-18T16:04:13.545Z,101221.59
2023-04-18T16:06:40.825Z,101220.19
2023-04-18T16:09:07.747Z,101222.16
2023-04-18T16:11:34.932Z,101223.44
2023-04-18T16:14:02.026Z,101216.72
2023-04-18T16:16:29.689Z,101221.16
2023-04-18T16:18:56.821Z,101224.53
2023-04-18T16:21:23.836Z,101228.09
2023-04-18T16:23:54.949Z,101229.78
2023-04-18T16:26:23.991Z,101231.44
2023-04-18T16:28:51.395Z,101236.56
2023-04-18T16:31:18.547Z,101236.28
2023-04-18T16:33:47.302Z,101229.78
2023-04-18T16:36:14.976Z,101240.63
2023-04-18T16:38:42.625Z,101232.00
2023-04-18T16:41:09.842Z,101232.59
2023-04-18T16:43:45.301Z,101237.75
2023-04-18T16:46:13.948Z,101239.16
2023-04-18T16:48:41.816Z,101238.63
2023-04-18T16:51:08.672Z,101245.69
2023-04-18T16:53:37.101Z,101237.84
2023-04-18T16:56:05.691Z,101245.75
2023-04-18T16:58:35.988Z,101242.53
2023-04-18T17:01:03.397Z,101251.72
2023-04-18T17:03:40.004Z,101250.91
2023-04-18T17:06:10.246Z,101248.50
2023-04-18T17:08:37.497Z,101245.78
2023-04-18T17:11:08.891Z,101251.75
2023-04-18T17:13:41.914Z,101251.25
2023-04-18T17:16:10.218Z,101252.31
2023-04-18T17:18:37.461Z,101255.28
2023-04-18T17:21:08.246Z,101264.72
2023-04-18T17:23:38.417Z,101270.06
2023-04-18T17:26:13.027Z,101272.75
2023-04-18T17:28:40.388Z,101267.31
2023-04-18T17:31:12.422Z,101272.13
2023-04-18T17:33:44.549Z,101273.19
2023-04-18T17:36:20.269Z,101275.34
2023-04-18T17:39:20.563Z,101281.31
2023-04-18T17:42:48.956Z,101286.47
2023-04-18T17:45:43.553Z,101288.88
2023-04-18T17:48:31.212Z,101292.56
2023-04-18T17:51:17.923Z,101292.75
2023-04-18T17:53:56.129Z,101288.38
2023-04-18T17:56:54.915Z,101303.75
2023-04-18T17:59:47.377Z,101301.50
2023-04-18T18:02:20.786Z,101311.13
2023-04-18T18:04:57.878Z,101301.31
2023-04-18T18:07:37.947Z,101314.16
2023-04-18T18:10:06.434Z,101311.91
2023-04-18T18:12:35.805Z,101316.44
2023-04-18T18:15:07.494Z,101323.41
2023-04-18T18:17:34.764Z,101324.16
2023-04-18T18:20:13.278Z,101335.19
2023-04-18T18:22:41.769Z,101336.56
2023-04-18T18:25:09.362Z,101337.16
2023-04-18T18:27:36.991Z,101336.72
2023-04-18T18:30:04.461Z,101336.19
2023-04-18T18:32:31.395Z,101344.00
2023-04-18T18:34:58.533Z,101342.13
2023-04-18T18:37:27.145Z,101353.47
2023-04-18T18:39:57.120Z,101356.44
2023-04-18T18:42:24.025Z,101351.84
2023-04-18T18:44:50.687Z,101355.59
2023-04-18T18:47:19.961Z,101359.63
2023-04-18T18:49:47.465Z,101359.38
2023-04-18T18:52:16.382Z,101369.59
2023-04-18T18:54:43.068Z,101369.53
2023-04-18T18:57:09.947Z,101386.22
2023-04-18T18:59:37.046Z,101381.84
2023-04-18T19:02:05.428Z,101385.34
2023-04-18T19:04:40.156Z,101396.38
2023-04-18T19:07:07.320Z,101389.34
2023-04-18T19:09:34.817Z,101387.75
2023-04-18T19:12:04.132Z,101392.06
2023-04-18T19:14:32.229Z,101392.59
2023-04-18T19:16:59.745Z,101388.25
2023-04-18T19:19:26.870Z,101390.38
2023-04-18T19:21:53.708Z,101388.19
2023-04-18T19:24:20.927Z,101394.16
2023-04-18T19:26:48.576Z,101399.78
2023-04-18T19:29:15.752Z,101395.72
2023-04-18T19:31:43.820Z,101411.31
2023-04-18T19:34:11.821Z,101401.59
2023-04-18T19:36:38.715Z,101404.78
2023-04-18T19:39:05.756Z,101411.19
2023-04-18T19:41:33.209Z,101409.72
2023-04-18T19:44:01.029Z,101413.72
2023-04-18T19:46:27.744Z,101414.78
2023-04-18T19:48:54.813Z,101405.03
2023-04-18T19:51:24.428Z,101410.34
2023-04-18T19:53:51.273Z,101408.66
2023-04-18T19:56:18.161Z,101409.16
2023-04-18T19:58:46.242Z,101412.59
2023-04-18T20:01:14.835Z,101412.19
2023-04-18T20:03:42.840Z,101414.25
2023-04-18T20:06:10.216Z,101412.63
2023-04-18T20:08:42.258Z,101416.94
2023-04-18T20:11:10.464Z,101410.50
2023-04-18T20:13:38.161Z,101410.81
2023-04-18T20:16:06.005Z,101419.22
2023-04-18T20:18:35.696Z,101417.00
2023-04-18T20:21:02.737Z,101421.25
2023-04-18T20:23:29.452Z,101424.44
2023-04-18T20:25:56.292Z,101420.22
2023-04-18T20:28:23.067Z,101424.22
2023-04-18T20:30:50.412Z,101421.75
2023-04-18T20:33:17.378Z,101425.25
2023-04-18T20:35:44.797Z,101421.19
2023-04-18T20:38:12.329Z,101422.25
2023-04-18T20:40:39.824Z,101421.72
2023-04-18T20:43:10.265Z,101414.13
2023-04-18T20:45:37.732Z,101423.25
2023-04-18T20:48:05.516Z,101425.69
2023-04-18T20:50:32.511Z,101430.81
2023-04-18T20:53:00.710Z,101428.63
2023-04-18T20:55:28.501Z,101431.06
2023-04-18T20:57:57.862Z,101430.25
2023-04-18T21:00:29.111Z,101432.69
2023-04-18T21:02:56.430Z,101433.44
2023-04-18T21:05:46.246Z,101425.84
2023-04-18T21:08:18.325Z,101424.25
2023-04-18T21:10:45.765Z,101424.72
2023-04-18T21:13:21.185Z,101422.78
2023-04-18T21:15:52.011Z,101424.09
2023-04-18T21:18:21.140Z,101425.97
2023-04-18T21:20:47.849Z,101421.63
2023-04-18T21:23:14.558Z,101425.13
2023-04-18T21:25:41.280Z,101427.00
2023-04-18T21:28:09.410Z,101432.06
2023-04-18T21:30:36.201Z,101430.44
2023-04-18T21:33:03.914Z,101430.44
2023-04-18T21:35:30.804Z,101427.19
2023-04-18T21:38:00.490Z,101433.03
2023-04-18T21:40:27.243Z,101429.53
2023-04-18T21:42:53.963Z,101430.34
2023-04-18T21:45:20.789Z,101435.16
2023-04-18T21:47:48.086Z,101428.81
2023-04-18T21:50:15.496Z,101436.63
2023-04-18T21:52:44.582Z,101423.75
2023-04-18T21:55:12.941Z,101427.81
2023-04-18T21:57:40.217Z,101425.69
2023-04-18T22:00:10.335Z,101427.81
2023-04-18T22:02:40.083Z,101428.31
2023-04-18T22:05:08.117Z,101433.19
2023-04-18T22:07:46.130Z,101427.81
2023-04-18T22:10:22.826Z,101439.09
2023-04-18T22:12:59.614Z,101439.56
2023-04-18T22:15:30.392Z,101435.50
2023-04-18T22:18:02.263Z,101434.69
2023-04-18T22:20:47.532Z,101435.41
2023-04-18T22:23:17.831Z,101438.25
2023-04-18T22:25:45.098Z,101434.69
2023-04-18T22:28:21.680Z,101437.84
2023-04-18T22:30:51.842Z,101429.13
2023-04-18T22:33:22.540Z,101439.22
2023-04-18T22:35:49.781Z,101443.66
2023-04-18T22:38:17.309Z,101441.44
2023-04-18T22:40:50.216Z,101429.09
2023-04-18T22:43:22.961Z,101444.06
2023-04-18T22:45:52.733Z,101444.53
2023-04-18T22:48:34.770Z,101439.66
2023-04-18T22:51:05.085Z,101433.94
2023-04-18T22:53:35.070Z,101440.59
2023-04-18T22:56:01.903Z,101448.66
2023-04-18T22:58:34.920Z,101445.16
2023-04-18T23:01:07.776Z,101442.72
2023-04-18T23:03:35.030Z,101449.38
2023-04-18T23:06:02.234Z,101450.69
2023-04-18T23:08:29.191Z,101446.84
2023-04-18T23:10:58.049Z,101446.28
2023-04-18T23:13:24.850Z,101446.28
2023-04-18T23:15:52.436Z,101453.75
2023-04-18T23:18:26.855Z,101459.13
2023-04-18T23:21:07.114Z,101456.44
2023-04-18T23:23:40.808Z,101455.38
2023-04-18T23:26:14.867Z,101446.28
2023-04-18T23:28:46.003Z,101447.09
2023-04-18T23:31:22.455Z,101451.38
2023-04-18T23:33:49.572Z,101449.53
2023-04-18T23:36:19.886Z,101449.53
2023-04-18T23:38:51.147Z,101444.97
2023-04-18T23:41:22.456Z,101437.16
2023-04-18T23:43:49.810Z,101442.53
2023-04-18T23:46:47.872Z,101436.13
2023-04-18T23:49:28.632Z,101434.47
2023-04-18T23:52:29.344Z,101444.16
2023-04-18T23:58:28.717Z,101436.00
